Time;durP1;ratioP1;P1;durP2;ratioP2;P2;SDS_P1;SDS_P2;PMS_P1;PMS_P2;Temp;Humidity;BMP_temperature;BMP_pressure;BME280_temperature;BME280_humidity;BME280_pressure;Samples;Min_cycle;Max_cycle;Signal;HPM_P1;HPM_P2
2022/12/04 00:01:15;;;;;;;59.95;20.77;;;0.60;99.90;;;;;;5076751;28;20048;-67
2022/12/04 00:03:41;;;;;;;54.08;20.13;;;0.60;99.90;;;;;;5074774;28;20038;-66
2022/12/04 00:06:16;;;;;;;58.53;21.67;;;0.60;99.90;;;;;;5079321;28;20035;-67
2022/12/04 00:08:43;;;;;;;53.75;19.55;;;0.60;99.90;;;;;;5088225;28;20043;-67
2022/12/04 00:11:10;;;;;;;47.50;17.73;;;0.60;99.90;;;;;;5075392;28;20543;-66
2022/12/04 00:13:37;;;;;;;58.67;21.52;;;0.60;99.90;;;;;;5075980;28;21039;-67
2022/12/04 00:16:05;;;;;;;52.72;19.35;;;0.60;99.90;;;;;;5080896;28;20088;-67
2022/12/04 00:18:30;;;;;;;46.22;16.77;;;0.60;99.90;;;;;;5077905;28;20116;-68
2022/12/04 00:20:56;;;;;;;54.92;19.92;;;0.60;99.90;;;;;;5080364;28;20477;-67
2022/12/04 00:23:21;;;;;;;55.78;21.15;;;0.60;99.90;;;;;;5075522;28;20392;-67
2022/12/04 00:25:47;;;;;;;52.47;19.95;;;0.60;99.90;;;;;;5078912;28;20493;-68
2022/12/04 00:28:17;;;;;;;54.33;20.88;;;0.60;99.90;;;;;;5075608;28;20391;-67
2022/12/04 00:30:44;;;;;;;48.95;18.88;;;0.60;99.90;;;;;;5081141;28;20496;-67
2022/12/04 00:33:11;;;;;;;51.35;19.15;;;0.60;99.90;;;;;;5078675;28;20032;-69
2022/12/04 00:35:37;;;;;;;54.28;20.80;;;0.60;99.90;;;;;;5077830;28;20032;-67
2022/12/04 00:38:02;;;;;;;55.13;21.02;;;0.50;99.90;;;;;;5077716;28;20631;-67
2022/12/04 00:40:28;;;;;;;62.97;22.45;;;0.50;99.90;;;;;;5084616;28;20448;-67
2022/12/04 00:42:53;;;;;;;50.80;20.05;;;0.50;99.90;;;;;;5081145;28;20036;-66
2022/12/04 00:45:19;;;;;;;53.75;20.33;;;0.50;99.90;;;;;;5080356;28;20130;-67
2022/12/04 00:47:45;;;;;;;57.58;20.73;;;0.50;99.90;;;;;;5078797;28;20039;-66
2022/12/04 00:50:10;;;;;;;57.90;20.38;;;0.50;99.90;;;;;;5078268;28;20513;-67
2022/12/04 00:52:36;;;;;;;55.53;21.00;;;0.50;99.90;;;;;;5077150;28;20044;-66
2022/12/04 00:55:02;;;;;;;57.53;20.48;;;0.50;99.90;;;;;;5074593;28;20099;-67
2022/12/04 00:57:28;;;;;;;48.03;18.83;;;0.60;99.90;;;;;;5078456;28;20032;-65
2022/12/04 00:59:54;;;;;;;55.05;21.02;;;0.50;99.90;;;;;;5079680;28;20465;-67
2022/12/04 01:02:19;;;;;;;56.85;21.42;;;0.50;99.90;;;;;;5081794;28;20040;-68
2022/12/04 01:04:45;;;;;;;55.63;21.50;;;0.50;99.90;;;;;;5059811;28;20044;-66
2022/12/04 01:07:10;;;;;;;53.25;21.02;;;0.50;99.90;;;;;;5076458;28;20188;-66
2022/12/04 01:09:36;;;;;;;54.55;21.63;;;0.50;99.90;;;;;;5077675;28;20044;-67
2022/12/04 01:12:02;;;;;;;49.53;20.15;;;0.50;99.90;;;;;;5084696;28;20043;-67
2022/12/04 01:14:27;;;;;;;60.90;22.00;;;0.50;99.90;;;;;;5084198;28;20040;-67
2022/12/04 01:16:53;;;;;;;57.58;22.40;;;0.60;99.90;;;;;;5090442;28;20092;-67
2022/12/04 01:19:18;;;;;;;52.05;21.15;;;0.50;99.90;;;;;;5075587;28;20032;-66
2022/12/04 01:21:44;;;;;;;56.38;20.90;;;0.60;99.90;;;;;;5081763;28;20122;-67
2022/12/04 01:24:09;;;;;;;54.75;20.55;;;0.50;99.90;;;;;;5075701;28;20082;-67
2022/12/04 01:26:35;;;;;;;58.38;20.15;;;0.50;99.90;;;;;;5071558;28;20093;-67
2022/12/04 01:29:01;;;;;;;57.03;21.13;;;0.50;99.90;;;;;;5078163;28;20109;-68
2022/12/04 01:31:27;;;;;;;59.55;20.90;;;0.50;99.90;;;;;;5078040;28;20040;-66
2022/12/04 01:33:52;;;;;;;53.85;20.50;;;0.60;99.90;;;;;;5056309;28;20099;-67
2022/12/04 01:36:21;;;;;;;58.33;21.90;;;0.50;99.90;;;;;;5077927;28;20486;-68
2022/12/04 01:38:47;;;;;;;59.08;21.45;;;0.50;99.90;;;;;;5084070;28;20033;-67
2022/12/04 01:41:15;;;;;;;60.20;21.45;;;0.50;99.90;;;;;;5077858;28;20551;-66
2022/12/04 01:43:42;;;;;;;55.78;21.40;;;0.60;99.90;;;;;;5086668;28;20036;-67
2022/12/04 01:46:08;;;;;;;66.55;23.45;;;0.60;99.90;;;;;;5077350;28;20079;-66
2022/12/04 01:48:40;;;;;;;56.03;21.50;;;0.50;99.90;;;;;;5076405;28;20058;-68
2022/12/04 01:51:13;;;;;;;58.47;21.63;;;0.50;99.90;;;;;;5073661;28;20118;-67
2022/12/04 01:53:41;;;;;;;56.85;22.33;;;0.50;99.90;;;;;;5073184;28;20063;-68
2022/12/04 01:56:08;;;;;;;61.30;21.33;;;0.40;99.90;;;;;;5077548;28;20087;-67
2022/12/04 01:58:45;;;;;;;56.97;22.02;;;0.40;99.90;;;;;;5074564;28;20028;-67
2022/12/04 02:01:10;;;;;;;57.45;22.15;;;0.40;99.90;;;;;;5075185;28;20032;-68
2022/12/04 02:03:37;;;;;;;61.60;23.92;;;0.40;99.90;;;;;;5081861;28;20028;-67
2022/12/04 02:06:04;;;;;;;63.70;23.23;;;0.40;99.90;;;;;;5077946;28;20063;-67
2022/12/04 02:08:31;;;;;;;64.15;22.38;;;0.40;99.90;;;;;;5078822;28;20056;-66
2022/12/04 02:11:27;;;;;;;55.22;22.42;;;0.40;99.90;;;;;;5077448;28;20035;-66
2022/12/04 02:14:16;;;;;;;59.22;22.73;;;0.40;99.90;;;;;;5076054;28;20044;-66
2022/12/04 02:17:14;;;;;;;61.45;22.80;;;0.40;99.90;;;;;;5070862;28;20048;-66
2022/12/04 02:19:48;;;;;;;53.78;20.88;;;0.40;99.90;;;;;;5078376;28;20055;-67
2022/12/04 02:22:40;;;;;;;61.92;23.42;;;0.40;99.90;;;;;;5079324;28;20380;-67
2022/12/04 02:25:24;;;;;;;60.65;21.83;;;0.40;99.90;;;;;;5059363;28;20040;-69
2022/12/04 02:28:13;;;;;;;59.38;23.17;;;0.40;99.90;;;;;;5073997;28;20118;-67
2022/12/04 02:30:41;;;;;;;56.40;21.88;;;0.30;99.90;;;;;;5082681;28;20468;-67
2022/12/04 02:33:21;;;;;;;62.22;23.02;;;0.30;99.90;;;;;;5080546;28;20036;-69
2022/12/04 02:36:05;;;;;;;61.33;22.85;;;0.30;99.90;;;;;;5077707;28;20040;-66
2022/12/04 02:38:42;;;;;;;52.00;21.05;;;0.30;99.90;;;;;;5073051;28;20691;-68
2022/12/04 02:42:03;;;;;;;67.00;24.63;;;0.30;99.90;;;;;;5064661;28;20050;-66
2022/12/04 02:44:33;;;;;;;55.80;21.83;;;0.30;99.90;;;;;;5058612;28;20048;-65
2022/12/04 02:47:02;;;;;;;56.72;22.98;;;0.40;99.90;;;;;;5074987;28;20055;-67
2022/12/04 02:49:37;;;;;;;61.95;22.58;;;0.30;99.90;;;;;;5075284;28;20051;-67
2022/12/04 02:52:08;;;;;;;62.60;23.67;;;0.40;99.90;;;;;;5082135;28;20040;-66
2022/12/04 02:54:38;;;;;;;62.58;25.10;;;0.30;99.90;;;;;;5073448;28;20426;-67
2022/12/04 02:57:06;;;;;;;;;;;0.30;99.90;;;;;;5074331;28;20259;-67
2022/12/04 02:59:36;;;;;;;62.42;23.25;;;0.30;99.90;;;;;;5073469;28;19930;-67
2022/12/04 03:02:09;;;;;;;55.83;21.65;;;0.30;99.90;;;;;;5079288;28;20082;-67
2022/12/04 03:04:38;;;;;;;59.38;22.75;;;0.30;99.90;;;;;;5076780;28;20040;-67
2022/12/04 03:07:11;;;;;;;55.20;22.15;;;0.30;99.90;;;;;;5082991;28;20563;-68
2022/12/04 03:09:46;;;;;;;62.75;24.48;;;0.30;99.90;;;;;;5082272;28;20046;-68
2022/12/04 03:12:23;;;;;;;62.95;24.02;;;0.30;99.90;;;;;;5088343;28;20047;-67
2022/12/04 03:14:58;;;;;;;62.00;23.10;;;0.30;99.90;;;;;;5082055;28;20113;-67
2022/12/04 03:17:36;;;;;;;68.20;24.13;;;0.30;99.90;;;;;;5079670;28;20032;-67
2022/12/04 03:20:09;;;;;;;59.70;23.40;;;0.20;99.90;;;;;;5083327;28;20040;-67
2022/12/04 03:22:39;;;;;;;68.00;25.27;;;0.20;99.90;;;;;;5083441;28;20045;-66
2022/12/04 03:25:07;;;;;;;68.65;26.33;;;0.20;99.90;;;;;;5076645;28;20040;-66
2022/12/04 03:27:44;;;;;;;65.43;25.80;;;0.20;99.90;;;;;;5081736;28;20147;-67
2022/12/04 03:30:20;;;;;;;68.40;25.63;;;0.20;99.90;;;;;;5078787;28;20054;-67
2022/12/04 03:33:10;;;;;;;67.00;25.27;;;0.10;99.90;;;;;;5076798;28;20040;-66
2022/12/04 03:35:38;;;;;;;66.03;24.63;;;0.10;99.90;;;;;;5083604;28;20040;-67
2022/12/04 03:38:26;;;;;;;69.75;26.08;;;0.10;99.90;;;;;;5080877;28;20048;-66
2022/12/04 03:41:24;;;;;;;58.95;23.23;;;0.10;99.90;;;;;;5074263;28;20518;-67
2022/12/04 03:44:11;;;;;;;65.60;23.60;;;0.10;99.90;;;;;;5078130;28;20039;-67
2022/12/04 03:46:39;;;;;;;65.18;24.10;;;0.10;99.90;;;;;;5084312;28;20036;-67
2022/12/04 03:49:17;;;;;;;72.03;25.35;;;0.10;99.90;;;;;;5088117;28;20036;-67
2022/12/04 03:51:54;;;;;;;65.70;25.90;;;0.10;99.90;;;;;;5080766;28;20115;-67
2022/12/04 03:54:56;;;;;;;69.97;25.17;;;0.10;99.90;;;;;;5079061;28;22349;-67
2022/12/04 03:57:31;;;;;;;65.53;23.95;;;0.10;99.90;;;;;;5064944;28;20036;-67
2022/12/04 04:00:05;;;;;;;68.80;25.75;;;0.10;99.90;;;;;;5079093;28;20059;-67
2022/12/04 04:02:38;;;;;;;55.30;22.92;;;0.00;99.90;;;;;;5089537;28;20043;-67
2022/12/04 04:05:08;;;;;;;70.10;25.98;;;0.00;99.90;;;;;;5082111;28;20484;-67
2022/12/04 04:07:43;;;;;;;60.00;23.77;;;0.10;99.90;;;;;;5085372;28;20032;-67
2022/12/04 04:10:15;;;;;;;66.70;22.90;;;0.00;99.90;;;;;;5084699;28;20044;-67
2022/12/04 04:24:13;;;;;;;62.47;24.70;;;0.00;99.90;;;;;;5090599;28;20039;-66
2022/12/04 04:24:13;;;;;;;62.17;22.95;;;0.00;99.90;;;;;;5080910;28;20410;-68
2022/12/04 04:26:42;;;;;;;54.55;22.17;;;0.00;99.90;;;;;;5079526;28;20036;-67
2022/12/04 04:29:09;;;;;;;65.72;23.80;;;0.00;99.90;;;;;;5081639;28;20035;-68
2022/12/04 04:31:50;;;;;;;60.08;23.80;;;0.00;99.90;;;;;;5083286;28;20071;-67
2022/12/04 04:34:37;;;;;;;63.42;23.92;;;0.00;99.90;;;;;;5087280;28;20075;-66
2022/12/04 04:37:08;;;;;;;60.25;24.25;;;0.00;99.90;;;;;;5083960;28;20056;-68
2022/12/04 04:39:49;;;;;;;72.38;26.35;;;0.00;99.90;;;;;;5079717;28;20047;-67
2022/12/04 04:42:28;;;;;;;74.63;25.25;;;0.00;99.90;;;;;;5091436;28;20032;-69
2022/12/04 04:45:15;;;;;;;71.15;25.08;;;0.00;99.90;;;;;;5084642;28;20070;-68
2022/12/04 04:47:55;;;;;;;68.82;25.30;;;0.00;99.90;;;;;;5088778;28;20089;-67
2022/12/04 04:50:22;;;;;;;69.03;22.33;;;0.00;99.90;;;;;;5082339;28;20463;-68
2022/12/04 04:52:53;;;;;;;62.20;24.48;;;0.00;99.90;;;;;;5085966;28;20122;-67
2022/12/04 04:55:19;;;;;;;58.72;23.70;;;-0.10;99.90;;;;;;5075913;28;20127;-67
2022/12/04 04:57:45;;;;;;;58.90;23.65;;;0.00;99.90;;;;;;5073321;28;20369;-68
2022/12/04 05:00:15;;;;;;;70.45;24.70;;;-0.10;99.90;;;;;;5077498;28;20055;-67
2022/12/04 05:02:41;;;;;;;53.60;22.30;;;0.00;99.90;;;;;;5089158;28;20071;-68
2022/12/04 05:05:07;;;;;;;61.15;24.02;;;-0.10;99.90;;;;;;5081498;28;21112;-67
2022/12/04 05:07:33;;;;;;;62.90;23.90;;;0.00;99.90;;;;;;5077764;28;20032;-66
2022/12/04 05:09:58;;;;;;;63.60;22.90;;;0.00;99.90;;;;;;5077838;28;20046;-68
2022/12/04 05:12:24;;;;;;;65.18;23.13;;;-0.10;99.90;;;;;;5075831;28;20043;-69
2022/12/04 05:14:49;;;;;;;63.67;23.20;;;-0.10;99.90;;;;;;5080763;28;20044;-68
2022/12/04 05:17:15;;;;;;;57.85;21.73;;;0.00;99.90;;;;;;5084767;28;20028;-67
2022/12/04 05:19:52;;;;;;;68.07;26.00;;;0.00;99.90;;;;;;5061138;28;20041;-68
2022/12/04 05:22:23;;;;;;;68.32;23.40;;;0.00;99.90;;;;;;5079896;28;20535;-68
2022/12/04 05:24:49;;;;;;;61.72;23.45;;;0.00;99.90;;;;;;5077141;28;20067;-68
2022/12/04 05:27:15;;;;;;;67.32;23.63;;;0.00;99.90;;;;;;5083449;28;20078;-66
2022/12/04 05:29:40;;;;;;;56.92;22.02;;;0.00;99.90;;;;;;5079845;28;20484;-67
2022/12/04 05:32:06;;;;;;;65.25;24.25;;;0.00;99.90;;;;;;5085929;28;21000;-67
2022/12/04 05:34:32;;;;;;;56.42;21.77;;;0.00;99.90;;;;;;5077919;28;20032;-67
2022/12/04 05:36:57;;;;;;;57.13;21.92;;;0.00;99.90;;;;;;5075125;28;20055;-70
2022/12/04 05:39:23;;;;;;;64.60;24.70;;;0.00;99.90;;;;;;5076606;28;20036;-66
2022/12/04 05:41:48;;;;;;;61.60;23.20;;;0.00;99.90;;;;;;5080198;28;20032;-66
2022/12/04 05:44:14;;;;;;;67.88;23.98;;;0.00;99.90;;;;;;5075860;28;20044;-66
2022/12/04 05:46:39;;;;;;;54.28;21.40;;;0.00;99.90;;;;;;5080069;28;20089;-68
2022/12/04 05:49:05;;;;;;;65.43;25.05;;;0.00;99.90;;;;;;5079178;28;20032;-68
2022/12/04 05:51:30;;;;;;;65.20;24.48;;;0.00;99.90;;;;;;5076746;28;20063;-66
2022/12/04 05:53:56;;;;;;;62.15;23.52;;;0.00;99.90;;;;;;5071417;28;20060;-67
2022/12/04 05:56:22;;;;;;;57.75;22.60;;;0.00;99.90;;;;;;5087282;28;20052;-67
2022/12/04 05:58:47;;;;;;;65.70;24.02;;;0.00;99.90;;;;;;5077967;28;20066;-68
2022/12/04 06:01:19;;;;;;;57.70;21.70;;;0.00;99.90;;;;;;5076903;28;20033;-68
2022/12/04 06:03:47;;;;;;;55.10;21.80;;;0.10;99.90;;;;;;5076919;28;20350;-66
2022/12/04 06:06:16;;;;;;;60.05;22.77;;;0.10;99.90;;;;;;5087972;28;20036;-67
2022/12/04 06:08:41;;;;;;;63.25;23.92;;;0.10;99.90;;;;;;5075309;28;20460;-66
2022/12/04 06:11:18;;;;;;;58.92;22.02;;;0.10;99.90;;;;;;5077640;28;20040;-67
2022/12/04 06:13:45;;;;;;;67.57;24.67;;;0.10;99.90;;;;;;5079763;28;20040;-66
2022/12/04 06:16:21;;;;;;;63.30;23.73;;;0.10;99.90;;;;;;5076387;28;20076;-66
2022/12/04 06:18:56;;;;;;;61.67;23.58;;;0.10;99.90;;;;;;5076966;28;20048;-67
2022/12/04 06:21:23;;;;;;;61.15;22.90;;;0.00;99.90;;;;;;5079109;28;20051;-68
2022/12/04 06:23:50;;;;;;;63.53;23.20;;;0.10;99.90;;;;;;5081065;28;20511;-65
2022/12/04 06:26:16;;;;;;;66.10;22.83;;;0.00;99.90;;;;;;5075985;28;20036;-66
2022/12/04 06:28:42;;;;;;;62.92;23.60;;;0.10;99.90;;;;;;5076494;28;20490;-67
2022/12/04 06:31:10;;;;;;;64.25;23.90;;;0.00;99.90;;;;;;5072199;28;20043;-66
2022/12/04 06:33:36;;;;;;;61.88;24.92;;;0.00;99.90;;;;;;5080740;28;20096;-67
2022/12/04 06:36:07;;;;;;;68.97;24.08;;;0.00;99.90;;;;;;5076742;28;20414;-68
2022/12/04 06:38:34;;;;;;;60.75;23.13;;;0.00;99.90;;;;;;5075987;28;20079;-67
2022/12/04 06:41:03;;;;;;;64.45;24.40;;;0.00;99.90;;;;;;5075599;28;20080;-67
2022/12/04 06:43:29;;;;;;;57.72;23.40;;;0.00;99.90;;;;;;5082852;28;20488;-66
2022/12/04 06:46:04;;;;;;;63.22;23.92;;;0.10;99.90;;;;;;5076717;28;20051;-66
2022/12/04 06:48:30;;;;;;;64.53;24.77;;;0.00;99.90;;;;;;5071795;28;20076;-67
2022/12/04 06:51:01;;;;;;;59.03;23.52;;;0.00;99.90;;;;;;5076047;28;20122;-67
2022/12/04 06:53:29;;;;;;;63.28;25.40;;;0.00;99.90;;;;;;5076260;28;20080;-67
2022/12/04 06:55:56;;;;;;;63.33;22.60;;;0.00;99.90;;;;;;5078499;28;20048;-67
2022/12/04 06:58:21;;;;;;;59.90;24.02;;;0.00;99.90;;;;;;5086691;28;20069;-67
2022/12/04 07:00:47;;;;;;;67.80;26.10;;;0.00;99.90;;;;;;5077131;28;20035;-66
2022/12/04 07:03:13;;;;;;;68.75;25.05;;;0.00;99.90;;;;;;5087900;28;20036;-67
2022/12/04 07:05:38;;;;;;;62.17;22.80;;;0.00;99.90;;;;;;5080169;28;20032;-68
2022/12/04 07:08:04;;;;;;;63.42;24.85;;;0.00;99.90;;;;;;5069719;28;20040;-69
2022/12/04 07:10:29;;;;;;;61.70;23.17;;;0.00;99.90;;;;;;5081330;28;20044;-67
2022/12/04 07:12:55;;;;;;;67.03;25.40;;;0.00;99.90;;;;;;5078058;28;20040;-67
2022/12/04 07:15:21;;;;;;;67.93;25.05;;;-0.10;99.90;;;;;;5070922;28;20465;-67
2022/12/04 07:17:46;;;;;;;70.80;24.30;;;-0.10;99.90;;;;;;5078526;28;20119;-67
2022/12/04 07:20:12;;;;;;;67.35;24.35;;;-0.10;99.90;;;;;;5075573;28;20032;-67
2022/12/04 07:22:37;;;;;;;73.95;25.83;;;0.00;99.90;;;;;;5076256;28;20109;-67
2022/12/04 07:25:04;;;;;;;69.95;25.15;;;0.00;99.90;;;;;;5083163;28;20491;-67
2022/12/04 07:27:30;;;;;;;63.75;23.25;;;0.00;99.90;;;;;;5077872;28;20462;-66
2022/12/04 07:29:56;;;;;;;68.22;25.10;;;0.00;99.90;;;;;;5071800;28;20086;-66
2022/12/04 07:32:21;;;;;;;67.63;23.77;;;0.00;99.90;;;;;;5068773;28;20040;-67
2022/12/04 07:34:47;;;;;;;63.13;24.05;;;0.00;99.90;;;;;;5075825;28;20040;-67
2022/12/04 07:37:12;;;;;;;75.35;25.23;;;0.00;99.90;;;;;;5074209;28;20137;-66
2022/12/04 07:39:38;;;;;;;69.95;24.25;;;0.00;99.90;;;;;;5068675;28;20158;-66
2022/12/04 07:42:03;;;;;;;68.97;24.90;;;0.00;99.90;;;;;;5083710;28;20040;-67
2022/12/04 07:44:32;;;;;;;67.35;24.92;;;0.00;99.90;;;;;;5069456;28;20151;-67
2022/12/04 07:46:58;;;;;;;67.45;25.23;;;0.10;99.90;;;;;;5071400;28;20045;-67
2022/12/04 07:49:23;;;;;;;67.90;25.15;;;0.10;99.90;;;;;;5070883;28;20089;-66
2022/12/04 07:51:49;;;;;;;65.50;23.88;;;0.10;99.90;;;;;;5070613;28;20155;-66
2022/12/04 07:54:15;;;;;;;66.13;24.23;;;0.10;99.90;;;;;;5081076;28;20492;-66
2022/12/04 07:56:40;;;;;;;71.53;25.58;;;0.10;99.90;;;;;;5061518;28;20051;-67
2022/12/04 07:59:06;;;;;;;76.38;26.25;;;0.10;99.90;;;;;;5084353;28;20140;-67
2022/12/04 08:01:31;;;;;;;72.63;25.15;;;0.10;99.90;;;;;;5070050;28;20040;-66
2022/12/04 08:03:58;;;;;;;71.75;26.02;;;0.10;99.90;;;;;;5070657;28;20035;-66
2022/12/04 08:06:26;;;;;;;64.57;23.65;;;0.20;99.90;;;;;;5082172;28;20036;-66
2022/12/04 08:08:52;;;;;;;71.80;24.02;;;0.10;99.90;;;;;;5073111;28;20044;-66
2022/12/04 08:11:21;;;;;;;71.75;26.13;;;0.10;99.90;;;;;;5084153;28;20040;-67
2022/12/04 08:13:47;;;;;;;63.92;23.13;;;0.20;99.90;;;;;;5087271;28;20043;-67
2022/12/04 08:16:14;;;;;;;69.60;23.92;;;0.20;99.90;;;;;;5090949;28;20043;-67
2022/12/04 08:18:40;;;;;;;73.25;26.48;;;0.10;99.90;;;;;;5079611;28;20036;-67
2022/12/04 08:21:07;;;;;;;67.55;24.10;;;0.10;99.90;;;;;;5089570;28;20089;-66
2022/12/04 08:23:35;;;;;;;67.38;23.98;;;0.10;99.90;;;;;;5077999;28;23128;-67
2022/12/04 08:26:01;;;;;;;70.25;25.30;;;0.10;99.90;;;;;;5071070;28;20491;-67
2022/12/04 08:28:28;;;;;;;64.88;24.63;;;0.10;99.90;;;;;;5078400;28;20431;-67
2022/12/04 08:30:54;;;;;;;70.07;23.55;;;0.20;99.90;;;;;;5083058;28;20060;-66
2022/12/04 08:33:20;;;;;;;69.50;24.70;;;0.20;99.90;;;;;;5091724;28;20070;-66
2022/12/04 08:35:45;;;;;;;64.30;23.65;;;0.20;99.90;;;;;;5070767;28;20040;-67
2022/12/04 08:38:11;;;;;;;71.90;25.45;;;0.30;99.90;;;;;;5070653;28;20036;-67
2022/12/04 08:40:36;;;;;;;70.75;24.77;;;0.20;99.90;;;;;;5086101;28;20028;-67
2022/12/04 08:43:02;;;;;;;65.15;23.50;;;0.20;99.90;;;;;;5074906;28;20064;-66
2022/12/04 08:45:27;;;;;;;72.78;26.38;;;0.30;99.90;;;;;;5088194;28;20040;-66
2022/12/04 08:47:53;;;;;;;65.75;22.85;;;0.30;99.90;;;;;;5074804;28;20051;-67
2022/12/04 08:50:18;;;;;;;70.97;24.70;;;0.30;99.90;;;;;;5086334;28;20041;-67
2022/12/04 08:52:44;;;;;;;75.82;24.77;;;0.30;99.90;;;;;;5088046;28;20400;-67
2022/12/04 08:55:10;;;;;;;65.97;23.35;;;0.30;99.90;;;;;;5081754;28;20480;-67
2022/12/04 08:57:35;;;;;;;75.05;24.85;;;0.40;99.90;;;;;;5089697;28;20826;-66
2022/12/04 09:00:01;;;;;;;70.35;25.27;;;0.40;99.90;;;;;;5087640;28;20085;-66
2022/12/04 09:02:26;;;;;;;66.22;23.65;;;0.40;99.90;;;;;;5074941;28;20036;-67
2022/12/04 09:04:52;;;;;;;65.70;23.63;;;0.40;99.90;;;;;;5078625;28;20043;-67
2022/12/04 09:07:18;;;;;;;70.95;24.40;;;0.50;99.90;;;;;;5064173;28;20043;-66
2022/12/04 09:09:43;;;;;;;72.40;24.48;;;0.40;99.90;;;;;;5055585;28;20075;-66
2022/12/04 09:12:09;;;;;;;66.70;23.52;;;0.50;99.90;;;;;;5050362;28;20507;-67
2022/12/04 09:14:35;;;;;;;66.22;24.25;;;0.50;99.90;;;;;;5083235;28;20047;-66
2022/12/04 09:17:01;;;;;;;60.30;23.02;;;0.50;99.90;;;;;;5084168;28;20468;-66
2022/12/04 09:19:26;;;;;;;62.08;22.77;;;0.50;99.90;;;;;;5078435;28;20044;-65
2022/12/04 09:21:53;;;;;;;60.85;23.90;;;0.60;99.90;;;;;;5082242;28;20054;-67
2022/12/04 09:24:19;;;;;;;59.95;23.52;;;0.60;99.90;;;;;;5062873;28;20056;-66
2022/12/04 09:26:44;;;;;;;60.50;24.08;;;0.60;99.90;;;;;;5080257;28;20040;-66
2022/12/04 09:29:11;;;;;;;63.97;23.42;;;0.60;99.90;;;;;;5074766;28;20040;-66
2022/12/04 09:31:36;;;;;;;58.47;22.80;;;0.60;99.90;;;;;;5076081;28;20492;-66
2022/12/04 09:34:02;;;;;;;55.88;21.35;;;0.60;99.90;;;;;;5086609;28;20048;-66
2022/12/04 09:36:28;;;;;;;53.17;21.95;;;0.70;99.90;;;;;;5086624;28;20105;-67
2022/12/04 09:38:54;;;;;;;62.85;22.83;;;0.70;99.90;;;;;;5086618;28;20573;-67
2022/12/04 09:41:35;;;;;;;63.38;23.20;;;0.70;99.90;;;;;;5070660;28;20047;-66
2022/12/04 09:44:02;;;;;;;56.83;21.17;;;0.70;99.90;;;;;;5076635;28;20037;-67
2022/12/04 09:46:39;;;;;;;58.63;22.20;;;0.70;99.90;;;;;;5088423;28;20044;-66
2022/12/04 09:49:21;;;;;;;55.83;22.27;;;0.80;99.90;;;;;;5078106;28;20630;-67
2022/12/04 09:51:47;;;;;;;56.78;20.48;;;0.80;99.90;;;;;;5089252;28;20090;-66
2022/12/04 09:54:23;;;;;;;59.25;21.67;;;0.80;99.90;;;;;;5079623;28;20549;-67
2022/12/04 09:57:01;;;;;;;54.05;21.52;;;0.90;99.90;;;;;;5082944;28;20067;-67
2022/12/04 09:59:30;;;;;;;62.45;21.38;;;0.90;99.90;;;;;;5091628;28;20365;-67
2022/12/04 10:02:28;;;;;;;48.72;20.08;;;0.90;99.90;;;;;;5090372;28;20035;-67
2022/12/04 10:04:54;;;;;;;56.08;21.83;;;0.90;99.90;;;;;;5088549;28;20555;-66
2022/12/04 10:07:44;;;;;;;59.35;22.50;;;1.00;99.90;;;;;;5079654;28;20423;-67
2022/12/04 10:10:25;;;;;;;52.70;20.30;;;1.00;99.90;;;;;;5085371;28;20048;-66
2022/12/04 10:13:09;;;;;;;54.30;22.13;;;1.10;99.90;;;;;;5078169;28;20044;-66
2022/12/04 10:16:06;;;;;;;57.95;21.25;;;1.10;99.90;;;;;;5074637;28;20094;-66
2022/12/04 10:19:00;;;;;;;54.78;21.05;;;1.10;99.90;;;;;;5068794;28;20048;-66
2022/12/04 10:21:43;;;;;;;48.70;19.38;;;1.20;99.90;;;;;;5085398;28;20043;-66
2022/12/04 10:24:13;;;;;;;46.67;19.35;;;1.20;99.90;;;;;;5086318;28;20095;-67
2022/12/04 10:26:44;;;;;;;56.38;20.20;;;1.30;99.90;;;;;;5083676;28;20105;-66
2022/12/04 10:29:31;;;;;;;53.70;19.77;;;1.30;99.90;;;;;;5091205;28;20123;-66
2022/12/04 10:32:19;;;;;;;48.63;20.58;;;1.40;99.90;;;;;;5090517;28;20032;-66
2022/12/04 10:34:48;;;;;;;47.83;19.77;;;1.40;99.90;;;;;;5077339;28;20036;-67
2022/12/04 10:37:14;;;;;;;49.58;18.92;;;1.50;99.90;;;;;;5077499;28;20047;-66
2022/12/04 10:39:54;;;;;;;52.67;19.15;;;1.50;99.90;;;;;;5076186;28;20089;-67
2022/12/04 10:42:37;;;;;;;48.33;18.38;;;1.60;99.90;;;;;;5080816;28;20380;-66
2022/12/04 10:45:05;;;;;;;48.38;17.85;;;1.60;99.90;;;;;;5081978;28;20032;-66
2022/12/04 10:47:32;;;;;;;48.88;19.10;;;1.70;99.90;;;;;;5081228;28;20045;-67
2022/12/04 10:50:17;;;;;;;43.35;17.85;;;1.70;99.90;;;;;;5071380;28;20083;-68
2022/12/04 10:52:44;;;;;;;44.40;16.75;;;1.70;99.90;;;;;;5057531;28;20036;-67
2022/12/04 10:55:10;;;;;;;46.50;18.23;;;1.70;99.90;;;;;;5076653;28;20492;-68
2022/12/04 10:57:37;;;;;;;36.55;15.90;;;1.80;99.90;;;;;;5085671;28;20040;-67
2022/12/04 11:00:33;;;;;;;40.28;15.98;;;1.70;99.90;;;;;;5076017;28;20486;-66
2022/12/04 11:03:01;;;;;;;41.38;16.27;;;1.80;99.90;;;;;;5089336;28;20040;-67
2022/12/04 11:05:54;;;;;;;37.83;16.42;;;1.80;99.90;;;;;;5088237;28;20067;-67
2022/12/04 11:08:34;;;;;;;40.15;16.83;;;1.80;99.90;;;;;;5072649;28;20057;-68
2022/12/04 11:11:04;;;;;;;41.45;14.90;;;1.80;99.90;;;;;;5081381;28;20036;-66
2022/12/04 11:13:29;;;;;;;35.28;14.93;;;1.80;99.90;;;;;;5070304;28;20063;-67
2022/12/04 11:15:57;;;;;;;35.53;14.70;;;1.80;99.90;;;;;;5089280;28;20040;-67
2022/12/04 11:18:31;;;;;;;42.60;17.17;;;1.80;99.90;;;;;;5088162;28;20040;-67
2022/12/04 11:21:04;;;;;;;37.85;15.75;;;1.80;99.90;;;;;;5089172;28;20392;-68
2022/12/04 11:23:49;;;;;;;36.72;15.15;;;1.80;99.90;;;;;;5083106;28;20037;-67
2022/12/04 11:26:27;;;;;;;33.28;13.52;;;1.80;99.90;;;;;;5070143;28;20063;-68
2022/12/04 11:28:53;;;;;;;35.60;15.35;;;1.80;99.90;;;;;;5071547;28;20558;-67
2022/12/04 11:31:21;;;;;;;43.30;15.93;;;1.80;99.90;;;;;;5078172;28;20047;-67
2022/12/04 11:33:57;;;;;;;37.33;15.50;;;1.80;99.90;;;;;;5087114;28;20064;-66
2022/12/04 11:36:33;;;;;;;31.65;14.10;;;1.80;99.90;;;;;;5090282;28;20090;-68
2022/12/04 11:39:18;;;;;;;37.33;15.55;;;1.80;99.90;;;;;;5089665;28;20374;-66
2022/12/04 11:41:43;;;;;;;34.08;14.00;;;1.90;99.90;;;;;;5071658;28;20075;-68
2022/12/04 11:44:23;;;;;;;34.90;13.75;;;1.90;99.90;;;;;;5081496;28;20087;-67
2022/12/04 11:46:54;;;;;;;38.58;15.65;;;1.90;99.90;;;;;;5083573;28;20089;-67
2022/12/04 11:49:22;;;;;;;33.40;14.73;;;1.90;99.90;;;;;;5090015;28;20490;-67
2022/12/04 11:52:08;;;;;;;38.55;15.95;;;1.90;99.90;;;;;;5089688;28;20089;-68
2022/12/04 11:55:05;;;;;;;38.22;15.32;;;1.90;99.90;;;;;;5089839;28;20062;-68
2022/12/04 11:58:26;;;;;;;37.58;14.82;;;1.90;99.90;;;;;;5085278;28;20070;-68
2022/12/04 12:01:05;;;;;;;34.50;14.27;;;2.00;99.90;;;;;;5083099;28;20440;-66
2022/12/04 12:03:58;;;;;;;41.45;15.63;;;2.00;99.90;;;;;;5095315;28;20031;-67
2022/12/04 12:06:35;;;;;;;30.88;13.15;;;2.00;99.90;;;;;;5081871;28;20047;-68
2022/12/04 12:09:13;;;;;;;36.83;15.18;;;2.00;99.90;;;;;;5092122;28;20047;-68
2022/12/04 12:12:03;;;;;;;38.13;16.13;;;2.00;99.90;;;;;;5082751;28;20047;-68
2022/12/04 12:15:05;;;;;;;39.42;16.13;;;2.10;99.90;;;;;;5090536;28;20429;-68
2022/12/04 12:17:46;;;;;;;34.42;14.85;;;2.10;99.90;;;;;;5087903;28;20058;-68
2022/12/04 12:20:47;;;;;;;34.92;13.05;;;2.10;99.90;;;;;;5080932;28;20036;-68
2022/12/04 12:23:22;;;;;;;34.42;13.77;;;2.10;99.90;;;;;;5081732;28;20059;-67
2022/12/04 12:26:02;;;;;;;35.22;14.02;;;2.10;99.90;;;;;;5076929;28;20494;-68
2022/12/04 12:28:43;;;;;;;31.70;14.05;;;2.20;99.90;;;;;;5074876;28;20032;-68
2022/12/04 12:31:21;;;;;;;33.42;14.88;;;2.20;99.90;;;;;;5067838;28;20044;-68
2022/12/04 12:34:10;;;;;;;33.85;12.82;;;2.20;99.90;;;;;;5091927;28;20048;-67
2022/12/04 12:36:42;;;;;;;31.95;13.85;;;2.20;99.90;;;;;;5079347;28;20040;-68
2022/12/04 12:39:37;;;;;;;28.00;12.88;;;2.20;99.90;;;;;;5074762;28;20435;-69
2022/12/04 12:42:06;;;;;;;34.42;14.60;;;2.20;99.90;;;;;;5050704;28;20052;-69
2022/12/04 12:44:42;;;;;;;33.10;14.27;;;2.20;99.90;;;;;;5085140;28;20181;-66
2022/12/04 12:47:21;;;;;;;29.83;13.15;;;2.20;99.90;;;;;;5085250;28;20043;-67
2022/12/04 12:49:54;;;;;;;30.00;13.27;;;2.30;99.90;;;;;;5074100;28;20474;-67
2022/12/04 12:52:28;;;;;;;32.13;14.82;;;2.30;99.90;;;;;;5087481;28;20044;-71
2022/12/04 12:54:57;;;;;;;36.75;14.02;;;2.20;99.90;;;;;;5088860;28;20052;-68
2022/12/04 12:57:36;;;;;;;34.70;13.05;;;2.30;99.90;;;;;;5089782;28;20035;-69
2022/12/04 13:00:25;;;;;;;35.30;14.70;;;2.30;99.90;;;;;;5091909;28;20426;-67
2022/12/04 13:03:03;;;;;;;36.10;15.60;;;2.30;99.90;;;;;;5090673;28;20101;-67
2022/12/04 13:05:43;;;;;;;35.60;15.55;;;2.30;99.90;;;;;;5082417;28;20063;-67
2022/12/04 13:08:22;;;;;;;37.88;15.73;;;2.30;99.90;;;;;;5092920;28;20040;-67